Time;durP1;ratioP1;P1;durP2;ratioP2;P2;SDS_P1;SDS_P2;PMS_P1;PMS_P2;Temp;Humidity;BMP_temperature;BMP_pressure;BME280_temperature;BME280_humidity;BME280_pressure;Samples;Min_cycle;Max_cycle;Signal;HPM_P1;HPM_P2
2022/09/10 00:01:22;;;;;;;2.85;2.55;;;;;;;22.12;82.55;100518.84;4936603;29;20407;-78
2022/09/10 00:03:50;;;;;;;2.95;2.33;;;;;;;22.06;81.81;100513.91;4936457;29;20048;-78
2022/09/10 00:06:18;;;;;;;2.97;2.35;;;;;;;22.19;80.79;100518.22;4935858;29;20399;-78
2022/09/10 00:08:47;;;;;;;4.63;2.10;;;;;;;22.19;81.97;100501.47;4936489;29;20059;-78
2022/09/10 00:11:15;;;;;;;3.60;2.28;;;;;;;22.21;81.58;100515.88;4936827;29;20047;-78
2022/09/10 00:13:44;;;;;;;3.70;2.10;;;;;;;22.15;81.42;100506.19;4924328;29;20044;-78
2022/09/10 00:16:15;;;;;;;3.40;2.72;;;;;;;22.08;82.97;100503.19;4936971;29;20055;-78
2022/09/10 00:18:42;;;;;;;6.07;2.60;;;;;;;22.00;83.18;100503.03;4938022;29;20055;-78
2022/09/10 00:21:15;;;;;;;2.78;1.98;;;;;;;22.01;82.61;100504.66;4936544;29;20040;-77
2022/09/10 00:23:44;;;;;;;5.90;2.33;;;;;;;22.19;82.36;100509.06;4936794;29;20058;-78
2022/09/10 00:26:17;;;;;;;2.63;2.30;;;;;;;22.33;82.82;100509.38;4919432;29;20044;-78
2022/09/10 00:28:46;;;;;;;4.97;2.78;;;;;;;22.38;83.25;100502.75;4919927;29;20044;-78
2022/09/10 00:31:14;;;;;;;3.22;2.22;;;;;;;22.41;81.56;100508.38;4936211;29;20456;-78
2022/09/10 00:33:43;;;;;;;4.68;2.88;;;;;;;22.08;81.64;100506.00;4932749;29;20059;-78
2022/09/10 00:36:17;;;;;;;4.13;2.85;;;;;;;22.09;82.76;100510.41;4923493;29;20052;-78
2022/09/10 00:38:45;;;;;;;3.58;2.50;;;;;;;22.21;81.76;100507.53;4935522;29;20075;-78
2022/09/10 00:41:15;;;;;;;4.43;3.13;;;;;;;22.38;82.88;100523.03;4934656;29;20063;-77
2022/09/10 00:43:58;;;;;;;5.28;3.42;;;;;;;22.32;85.05;100535.63;4915581;29;20407;-76
2022/09/10 00:46:47;;;;;;;7.40;3.35;;;;;;;22.05;85.18;100556.88;4916532;29;20056;-75
2022/09/10 00:49:20;;;;;;;3.42;2.35;;;;;;;21.89;82.76;100566.03;4935154;29;20059;-76
2022/09/10 00:51:51;;;;;;;4.57;1.98;;;;;;;21.64;82.10;100598.78;4934261;29;20043;-75
2022/09/10 00:54:23;;;;;;;4.03;1.58;;;;;;;21.07;82.07;100605.91;4934620;29;20047;-77
2022/09/10 00:56:53;;;;;;;5.28;1.13;;;;;;;20.51;80.09;100592.63;4917846;29;20051;-76
2022/09/10 00:59:25;;;;;;;4.38;0.95;;;;;;;20.37;81.76;100590.19;4914593;29;20048;-76
2022/09/10 01:01:54;;;;;;;5.68;1.60;;;;;;;20.17;83.02;100569.69;4924713;29;20047;-76
2022/09/10 01:04:22;;;;;;;7.38;1.42;;;;;;;19.92;86.01;100564.06;4935427;29;20066;-76
2022/09/10 01:06:50;;;;;;;1.70;0.80;;;;;;;19.80;86.50;100574.00;4935495;29;20056;-76
2022/09/10 01:09:22;;;;;;;1.95;1.75;;;;;;;19.70;89.79;100583.56;4935562;29;20044;-76
2022/09/10 01:11:56;;;;;;;4.43;2.15;;;;;;;19.81;89.12;100574.81;4935723;29;20054;-76
2022/09/10 01:14:45;;;;;;;3.85;2.10;;;;;;;19.95;90.40;100602.28;4935893;29;20059;-76
2022/09/10 01:17:19;;;;;;;4.93;2.72;;;;;;;20.00;89.99;100629.88;4916979;29;20055;-77
2022/09/10 01:19:57;;;;;;;4.30;2.15;;;;;;;20.20;89.02;100630.13;4933734;29;20047;-77
2022/09/10 01:22:46;;;;;;;2.10;1.58;;;;;;;20.27;86.22;100653.41;4918470;29;20410;-76
2022/09/10 01:25:34;;;;;;;3.33;1.88;;;;;;;20.24;87.29;100670.75;4935207;29;20047;-76
2022/09/10 01:28:09;;;;;;;1.20;1.10;;;;;;;20.19;86.10;100692.41;4924681;29;20052;-77
2022/09/10 01:30:44;;;;;;;3.38;1.30;;;;;;;19.99;84.12;100675.47;4916985;29;20048;-77
2022/09/10 01:33:53;;;;;;;5.70;1.65;;;;;;;19.98;83.05;100634.94;4935796;29;20063;-76
2022/09/10 01:36:27;;;;;;;2.50;1.42;;;;;;;19.59;82.92;100594.31;4884785;29;20063;-76
2022/09/10 01:38:56;;;;;;;3.25;1.50;;;;;;;19.83;85.18;100609.41;4917996;29;20071;-77
2022/09/10 01:41:26;;;;;;;5.13;1.65;;;;;;;19.81;84.77;100594.25;4932930;29;20059;-78
2022/09/10 01:43:55;;;;;;;1.50;1.40;;;;;;;19.38;86.22;100515.81;4934354;29;20066;-76
2022/09/10 01:46:44;;;;;;;1.75;1.00;;;;;;;19.73;79.70;100509.91;4916608;29;20055;-79
2022/09/10 01:49:27;;;;;;;0.60;0.60;;;;;;;19.79;76.23;100514.06;4897258;29;20414;-79
2022/09/10 01:52:24;;;;;;;2.67;1.23;;;;;;;20.00;81.24;100511.22;4918778;29;20055;-78
2022/09/10 01:55:10;;;;;;;1.77;0.85;;;;;;;19.81;80.00;100467.34;4917080;29;20063;-79
2022/09/10 01:57:57;;;;;;;1.13;0.80;;;;;;;19.86;81.42;100461.53;4908454;29;20067;-78
2022/09/10 02:00:38;;;;;;;1.83;1.30;;;;;;;19.50;85.00;100448.47;4917223;29;20055;-78
2022/09/10 02:03:14;;;;;;;1.23;1.10;;;;;;;19.63;85.41;100452.03;4935507;29;20051;-79
2022/09/10 02:05:45;;;;;;;2.83;1.30;;;;;;;19.26;86.97;100438.94;4934705;29;20043;-79
2022/09/10 02:08:22;;;;;;;2.90;1.50;;;;;;;19.44;85.46;100450.63;4935431;29;20055;-80
2022/09/10 02:10:58;;;;;;;1.10;1.02;;;;;;;19.46;85.67;100465.00;4917140;29;20039;-81
2022/09/10 02:13:29;;;;;;;2.03;1.10;;;;;;;19.63;85.06;100468.69;4917743;29;20063;-80
2022/09/10 02:16:20;;;;;;;1.47;1.33;;;;;;;19.32;83.78;100482.75;4933889;29;20043;-80
2022/09/10 02:18:48;;;;;;;1.70;1.30;;;;;;;19.58;83.50;100484.44;4935026;29;20514;-81
2022/09/10 02:21:17;;;;;;;1.08;0.88;;;;;;;19.59;82.49;100485.22;4912134;29;20059;-81
2022/09/10 02:23:50;;;;;;;1.85;1.33;;;;;;;19.56;82.70;100483.94;4920202;29;20055;-82
2022/09/10 02:26:19;;;;;;;1.38;1.00;;;;;;;19.55;83.92;100471.25;4917822;29;20064;-82
2022/09/10 02:28:48;;;;;;;1.70;1.17;;;;;;;19.57;83.43;100474.50;4933085;29;20048;-82
2022/09/10 02:31:17;;;;;;;1.00;0.90;;;;;;;19.54;83.40;100472.41;4916468;29;20047;-81
2022/09/10 02:33:45;;;;;;;1.40;1.05;;;;;;;19.71;82.35;100481.69;4917000;29;20040;-81
2022/09/10 02:36:13;;;;;;;1.38;0.95;;;;;;;19.78;82.41;100470.00;4933418;29;20052;-82
2022/09/10 02:38:41;;;;;;;2.20;1.05;;;;;;;19.84;83.28;100472.19;4934194;29;20052;-82
2022/09/10 02:41:09;;;;;;;1.88;1.20;;;;;;;19.56;83.86;100455.41;4916864;29;20421;-82
2022/09/10 02:43:37;;;;;;;1.13;0.73;;;;;;;19.45;84.24;100453.06;4916316;29;20066;-82
2022/09/10 02:46:07;;;;;;;1.00;0.95;;;;;;;19.71;83.63;100451.94;4916066;29;20404;-82
2022/09/10 02:48:38;;;;;;;4.45;1.30;;;;;;;19.74;83.21;100469.88;4938489;29;20090;-82
2022/09/10 02:51:08;;;;;;;1.63;1.30;;;;;;;19.85;84.75;100473.81;4914054;29;20044;-82
2022/09/10 02:53:37;;;;;;;1.20;1.10;;;;;;;19.74;84.85;100481.78;4911592;29;20040;-82
2022/09/10 02:56:07;;;;;;;4.10;1.25;;;;;;;19.73;85.35;100476.59;4905227;29;20048;-82
2022/09/10 02:58:36;;;;;;;1.77;1.33;;;;;;;19.78;86.05;100475.53;4915774;29;20056;-82
2022/09/10 03:01:18;;;;;;;1.50;1.05;;;;;;;19.71;86.04;100476.13;4913141;29;20048;-82
2022/09/10 03:03:54;;;;;;;1.55;1.25;;;;;;;19.65;85.49;100469.19;4913798;29;20191;-82
2022/09/10 03:06:24;;;;;;;1.20;1.08;;;;;;;19.66;85.84;100473.56;4909388;29;20052;-82
2022/09/10 03:08:56;;;;;;;1.45;1.35;;;;;;;19.52;86.31;100468.34;4913850;29;20051;-82
2022/09/10 03:11:26;;;;;;;1.83;1.20;;;;;;;19.49;88.08;100463.50;4910202;29;20040;-82
2022/09/10 03:13:54;;;;;;;2.20;1.50;;;;;;;19.51;88.17;100484.19;4912567;29;20356;-82
2022/09/10 03:16:23;;;;;;;1.40;1.30;;;;;;;19.55;87.70;100487.09;4912619;29;20044;-82
2022/09/10 03:18:51;;;;;;;1.15;1.15;;;;;;;19.54;87.23;100480.72;4915483;29;20377;-82
2022/09/10 03:21:23;;;;;;;1.20;1.02;;;;;;;19.60;86.85;100479.34;4914457;29;20044;-82
2022/09/10 03:23:54;;;;;;;1.50;1.40;;;;;;;19.63;87.05;100493.69;4913327;29;20047;-82
2022/09/10 03:26:28;;;;;;;1.35;1.20;;;;;;;19.58;86.13;100484.44;4908523;29;20048;-82
2022/09/10 03:28:56;;;;;;;1.67;1.55;;;;;;;19.57;86.29;100477.28;4913503;29;20065;-82
2022/09/10 03:31:27;;;;;;;1.55;1.33;;;;;;;19.57;86.63;100493.94;4906909;29;20045;-82
2022/09/10 03:33:56;;;;;;;1.30;1.20;;;;;;;19.49;86.67;100486.50;4911225;29;20048;-82
2022/09/10 03:36:27;;;;;;;1.33;1.23;;;;;;;19.41;87.24;100495.72;4889527;29;20055;-82
2022/09/10 03:38:54;;;;;;;1.65;1.35;;;;;;;19.37;86.73;100516.97;4911109;29;20059;-82
2022/09/10 03:41:23;;;;;;;1.90;1.70;;;;;;;19.49;86.12;100511.47;4912903;29;20071;-82
2022/09/10 03:43:53;;;;;;;3.10;1.45;;;;;;;19.49;86.59;100508.69;4911189;29;20411;-82
2022/09/10 03:46:21;;;;;;;2.20;1.73;;;;;;;19.51;86.91;100511.13;4911089;29;20052;-82
2022/09/10 03:48:49;;;;;;;3.65;1.50;;;;;;;19.44;86.61;100528.31;4931745;29;20561;-82
2022/09/10 03:51:24;;;;;;;2.17;1.52;;;;;;;19.50;85.63;100537.25;4921542;29;20071;-82
2022/09/10 03:53:52;;;;;;;1.75;1.65;;;;;;;19.56;84.88;100535.91;4914180;29;20402;-82
2022/09/10 03:56:21;;;;;;;1.55;1.45;;;;;;;19.47;85.42;100533.22;4932862;29;20062;-82
2022/09/10 03:58:50;;;;;;;2.03;1.52;;;;;;;19.47;84.86;100528.44;4917283;29;20171;-82
2022/09/10 04:01:18;;;;;;;2.40;1.70;;;;;;;19.45;85.49;100535.50;4915662;29;20047;-82
2022/09/10 04:03:48;;;;;;;2.17;1.63;;;;;;;19.40;85.03;100530.19;4916423;29;20040;-82
2022/09/10 04:06:16;;;;;;;4.45;1.77;;;;;;;19.39;85.95;100546.00;4933029;29;20399;-82
2022/09/10 04:08:43;;;;;;;2.72;1.50;;;;;;;19.42;85.00;100547.28;4934049;29;20521;-82
2022/09/10 04:11:14;;;;;;;2.20;2.05;;;;;;;19.45;84.67;100557.69;4912483;29;20048;-82
2022/09/10 04:13:45;;;;;;;1.27;1.20;;;;;;;19.36;83.79;100554.22;4924313;29;20051;-82
2022/09/10 04:16:15;;;;;;;1.85;1.65;;;;;;;19.35;84.10;100553.38;4936699;29;20518;-82
2022/09/10 04:18:43;;;;;;;2.70;1.25;;;;;;;19.32;84.94;100560.41;4915743;29;20051;-82
2022/09/10 04:21:14;;;;;;;2.33;1.60;;;;;;;19.31;84.74;100561.56;4906809;29;20073;-83
2022/09/10 04:23:43;;;;;;;1.75;1.50;;;;;;;19.06;85.13;100558.69;4920258;29;20044;-82
2022/09/10 04:26:13;;;;;;;2.10;1.45;;;;;;;19.24;85.21;100557.72;4919581;29;20055;-83
2022/09/10 04:28:43;;;;;;;1.73;1.50;;;;;;;19.24;85.18;100564.09;4919520;29;20071;-83
2022/09/10 04:31:11;;;;;;;2.22;1.77;;;;;;;19.23;84.74;100562.47;4917839;29;20519;-83
2022/09/10 04:33:39;;;;;;;3.60;1.75;;;;;;;19.14;83.24;100568.09;4934699;29;20514;-83
2022/09/10 04:36:07;;;;;;;1.45;1.35;;;;;;;19.14;83.27;100573.66;4918707;29;20040;-83
2022/09/10 04:38:40;;;;;;;3.08;1.55;;;;;;;19.14;83.36;100578.38;4919127;29;20051;-83
2022/09/10 04:41:11;;;;;;;1.45;1.35;;;;;;;19.10;83.88;100577.44;4918413;29;20486;-83
2022/09/10 04:43:39;;;;;;;1.40;1.27;;;;;;;19.16;84.13;100576.09;4919288;29;20039;-82
2022/09/10 04:46:07;;;;;;;1.70;1.40;;;;;;;19.17;84.67;100569.38;4936167;29;20046;-82
2022/09/10 04:48:38;;;;;;;1.38;1.27;;;;;;;19.10;84.65;100569.13;4916140;29;20059;-82
2022/09/10 04:51:07;;;;;;;3.13;1.70;;;;;;;19.04;84.82;100576.81;4909887;29;20046;-83
2022/09/10 04:53:53;;;;;;;2.45;1.95;;;;;;;19.06;83.98;100571.75;4928924;29;20051;-82
2022/09/10 04:56:25;;;;;;;3.92;1.55;;;;;;;19.15;82.69;100580.00;4918949;29;20074;-82
2022/09/10 04:58:53;;;;;;;3.00;1.58;;;;;;;19.20;83.53;100594.47;4919239;29;20055;-82
2022/09/10 05:01:21;;;;;;;1.60;1.30;;;;;;;19.14;83.68;100593.06;4915988;29;20055;-85
2022/09/10 05:03:51;;;;;;;2.05;1.83;;;;;;;19.01;84.76;100589.38;4919855;29;20055;-83
2022/09/10 05:06:19;;;;;;;1.95;1.73;;;;;;;19.00;83.68;100593.28;4933526;29;20052;-84
2022/09/10 05:08:48;;;;;;;2.85;1.90;;;;;;;19.14;83.33;100584.75;4919267;29;20491;-83
2022/09/10 05:11:18;;;;;;;2.20;2.00;;;;;;;19.21;83.19;100589.72;4923706;29;20055;-83
2022/09/10 05:13:46;;;;;;;2.30;1.90;;;;;;;19.07;84.43;100599.13;4917065;29;20043;-82
2022/09/10 05:16:20;;;;;;;2.05;1.85;;;;;;;18.72;85.30;100595.78;4900824;29;20039;-82
2022/09/10 05:18:48;;;;;;;3.42;1.80;;;;;;;19.10;85.11;100599.63;4915279;29;20062;-85
2022/09/10 05:21:17;;;;;;;3.85;2.05;;;;;;;19.07;83.39;100601.91;4897742;29;20395;-81
2022/09/10 05:23:45;;;;;;;4.63;2.38;;;;;;;19.14;83.94;100608.88;4898371;29;20051;-81
2022/09/10 05:26:13;;;;;;;3.58;1.77;;;;;;;19.26;83.20;100610.94;4894010;29;20051;-82
2022/09/10 05:28:41;;;;;;;2.58;2.15;;;;;;;19.13;84.64;100613.63;4902896;29;20067;-81
2022/09/10 05:31:15;;;;;;;2.78;2.25;;;;;;;19.13;84.20;100618.34;4888689;29;20231;-82
2022/09/10 05:33:45;;;;;;;3.53;2.97;;;;;;;19.32;83.54;100615.91;4886826;29;20052;-82
2022/09/10 05:36:13;;;;;;;2.25;2.05;;;;;;;19.20;83.30;100621.41;4917725;29;20048;-82
2022/09/10 05:38:43;;;;;;;2.75;2.55;;;;;;;19.43;82.02;100618.28;4918983;29;20059;-82
2022/09/10 05:41:12;;;;;;;4.35;2.70;;;;;;;19.82;80.55;100627.22;4919096;29;20047;-82
2022/09/10 05:43:44;;;;;;;3.60;2.45;;;;;;;20.01;79.92;100637.03;4919049;29;20052;-81
2022/09/10 05:46:12;;;;;;;5.72;3.08;;;;;;;19.94;79.15;100636.75;4918251;29;20067;-80
2022/09/10 05:48:45;;;;;;;3.03;2.83;;;;;;;20.22;79.15;100641.69;4927438;29;21981;-79
2022/09/10 05:51:14;;;;;;;3.75;2.85;;;;;;;20.31;77.48;100647.16;4915529;29;20060;-81
2022/09/10 05:53:43;;;;;;;3.42;2.20;;;;;;;20.40;78.71;100648.66;4915767;29;20051;-82
2022/09/10 05:56:11;;;;;;;4.50;2.58;;;;;;;20.58;76.78;100651.22;4915255;29;20385;-80
2022/09/10 05:58:53;;;;;;;3.20;2.45;;;;;;;20.68;75.94;100652.75;4920170;29;20048;-79
2022/09/10 06:01:36;;;;;;;;;;;;;;;20.62;75.50;100662.50;4911641;29;20061;-79
2022/09/10 06:04:05;;;;;;;2.63;2.30;;;;;;;20.75;75.58;100671.63;4915125;29;19923;-80
2022/09/10 06:06:34;;;;;;;4.63;2.17;;;;;;;20.74;74.05;100676.41;4915141;29;20070;-81
2022/09/10 06:09:07;;;;;;;2.33;1.98;;;;;;;20.77;74.27;100675.69;4910496;29;20403;-80
2022/09/10 06:11:58;;;;;;;3.28;2.63;;;;;;;20.98;74.71;100683.13;4909083;29;20052;-82
2022/09/10 06:14:26;;;;;;;7.38;3.28;;;;;;;21.20;74.03;100681.81;4916486;29;20043;-81
2022/09/10 06:16:54;;;;;;;2.58;2.30;;;;;;;21.13;75.02;100678.84;4916204;29;20047;-80
2022/09/10 06:19:24;;;;;;;3.83;2.30;;;;;;;21.24;74.82;100675.53;4919689;29;20442;-80
2022/09/10 06:21:53;;;;;;;3.70;2.60;;;;;;;21.29;73.79;100683.66;4913333;29;20044;-77
2022/09/10 06:24:23;;;;;;;2.58;2.20;;;;;;;21.33;73.88;100681.81;4909262;29;20056;-85
2022/09/10 06:26:56;;;;;;;3.40;2.15;;;;;;;21.69;71.41;100682.03;4898344;29;20072;-82
2022/09/10 06:29:28;;;;;;;2.33;2.13;;;;;;;22.23;70.34;100679.94;4913085;29;20051;-84
2022/09/10 06:31:59;;;;;;;2.63;1.90;;;;;;;22.38;69.35;100681.94;4924273;29;20051;-84
2022/09/10 06:34:27;;;;;;;2.88;2.25;;;;;;;22.34;69.78;100685.81;4904421;29;20048;-84
2022/09/10 06:37:05;;;;;;;4.32;2.47;;;;;;;22.31;70.15;100686.53;4897538;29;20059;-84
2022/09/10 06:39:36;;;;;;;4.82;3.30;;;;;;;22.69;68.72;100696.28;4909163;29;20056;-84
2022/09/10 06:42:06;;;;;;;5.20;2.80;;;;;;;22.75;68.40;100685.66;4908207;29;20052;-83
2022/09/10 06:44:59;;;;;;;3.33;1.92;;;;;;;22.69;68.42;100685.13;4913867;29;20487;-84
2022/09/10 06:47:37;;;;;;;2.88;2.50;;;;;;;22.66;67.73;100697.81;4908664;29;20056;-84
2022/09/10 06:50:25;;;;;;;4.07;2.17;;;;;;;22.88;67.86;100689.94;4911120;29;20052;-83
2022/09/10 06:52:56;;;;;;;2.08;1.95;;;;;;;22.83;67.98;100690.25;4908264;29;20395;-84
2022/09/10 06:55:25;;;;;;;2.13;1.92;;;;;;;23.03;67.25;100702.25;4911826;29;20071;-83
2022/09/10 06:57:53;;;;;;;2.92;1.80;;;;;;;23.07;66.54;100689.22;4911145;29;20067;-84
2022/09/10 07:00:21;;;;;;;2.75;2.15;;;;;;;22.89;66.25;100687.97;4913740;29;20403;-84
2022/09/10 07:02:52;;;;;;;2.30;2.03;;;;;;;22.85;66.75;100681.50;4914227;29;20051;-83
2022/09/10 07:05:21;;;;;;;2.45;2.20;;;;;;;22.90;67.53;100675.66;4910255;29;20047;-84
2022/09/10 07:07:49;;;;;;;1.80;1.65;;;;;;;23.12;67.03;100679.72;4906152;29;20048;-83
2022/09/10 07:10:17;;;;;;;2.50;1.88;;;;;;;23.16;66.12;100677.84;4924133;29;20515;-84
2022/09/10 07:12:45;;;;;;;3.95;2.20;;;;;;;23.16;66.94;100677.84;4913964;29;20059;-85
2022/09/10 07:15:13;;;;;;;2.05;1.92;;;;;;;23.43;65.02;100685.63;4914735;29;20044;-86
2022/09/10 07:17:41;;;;;;;2.67;1.45;;;;;;;23.37;65.36;100678.72;4909374;29;20040;-86
2022/09/10 07:20:11;;;;;;;2.58;1.73;;;;;;;23.41;65.71;100687.97;4911801;29;20487;-83
2022/09/10 07:22:47;;;;;;;2.65;1.50;;;;;;;23.35;64.15;100685.47;4913924;29;20075;-85
2022/09/10 07:25:18;;;;;;;1.77;1.55;;;;;;;23.66;63.68;100691.28;4910520;29;20044;-82
2022/09/10 07:28:12;;;;;;;2.20;1.33;;;;;;;23.97;64.06;100686.72;4908073;29;20060;-82
2022/09/10 07:30:44;;;;;;;2.92;1.27;;;;;;;24.07;63.03;100690.94;4913730;29;20037;-83
2022/09/10 07:33:13;;;;;;;1.65;1.42;;;;;;;24.03;62.24;100688.03;4911259;29;20052;-82
2022/09/10 07:35:43;;;;;;;2.85;1.33;;;;;;;24.07;62.21;100682.53;4904837;29;20040;-85
2022/09/10 07:38:19;;;;;;;3.05;1.80;;;;;;;24.12;60.89;100684.22;4904707;29;20044;-84
2022/09/10 07:40:48;;;;;;;2.50;1.38;;;;;;;24.33;61.65;100688.59;4908114;29;20063;-86
2022/09/10 07:43:17;;;;;;;4.45;1.60;;;;;;;24.26;59.81;100676.13;4913980;29;20044;-86
2022/09/10 07:45:45;;;;;;;2.13;1.70;;;;;;;24.30;60.43;100690.16;4907630;29;20048;-86
2022/09/10 07:48:13;;;;;;;5.15;1.70;;;;;;;24.24;62.56;100686.84;4923227;29;20054;-84
2022/09/10 07:50:41;;;;;;;1.33;1.17;;;;;;;24.22;61.29;100691.19;4903514;29;20051;-87
2022/09/10 07:53:10;;;;;;;5.25;1.52;;;;;;;24.24;61.34;100691.66;4919447;29;20056;-85
2022/09/10 07:55:38;;;;;;;1.10;1.00;;;;;;;24.45;61.15;100690.41;4912588;29;20052;-83
2022/09/10 07:58:06;;;;;;;2.45;1.38;;;;;;;24.51;60.69;100691.69;4914012;29;20036;-85
2022/09/10 08:00:36;;;;;;;2.35;1.08;;;;;;;24.60;59.92;100688.66;4925281;29;20040;-86
2022/09/10 08:03:10;;;;;;;1.08;1.00;;;;;;;24.54;59.65;100690.97;4901716;29;20040;-84
2022/09/10 08:05:39;;;;;;;2.72;1.35;;;;;;;24.26;59.68;100684.50;4918585;29;20058;-85
2022/09/10 08:08:09;;;;;;;1.63;1.52;;;;;;;24.42;59.43;100691.94;4930451;29;20054;-85
2022/09/10 08:10:37;;;;;;;1.50;1.10;;;;;;;24.51;58.50;100689.72;4917081;29;20048;-84
2022/09/10 08:13:05;;;;;;;1.70;0.93;;;;;;;24.69;57.73;100690.00;4919213;29;20043;-85
2022/09/10 08:15:34;;;;;;;1.35;1.10;;;;;;;24.94;57.09;100695.22;4917934;29;20510;-85
2022/09/10 08:18:03;;;;;;;0.70;0.70;;;;;;;24.98;56.41;100700.06;4936692;29;20402;-65
2022/09/10 08:20:32;;;;;;;1.35;1.00;;;;;;;25.02;56.15;100700.94;4919751;29;20047;-89
2022/09/10 08:23:01;;;;;;;1.15;0.82;;;;;;;25.02;56.42;100703.75;4902018;29;20074;-90
2022/09/10 08:25:30;;;;;;;1.83;0.80;;;;;;;25.10;55.75;100705.44;4902886;29;20051;-94
2022/09/10 08:27:59;;;;;;;2.15;1.10;;;;;;;25.14;55.22;100702.69;4891034;29;20052;-94
2022/09/10 08:30:30;;;;;;;2.88;1.15;;;;;;;25.17;54.40;100705.53;4912185;29;20060;-91
2022/09/10 08:33:01;;;;;;;1.17;0.77;;;;;;;25.24;55.47;100696.44;4919552;29;20044;-92
2022/09/10 08:35:34;;;;;;;1.48;1.27;;;;;;;25.06;54.84;100712.97;4905049;29;20491;-93
2022/09/10 08:38:02;;;;;;;1.00;0.95;;;;;;;25.12;56.18;100705.06;4898977;29;20064;-92
2022/09/10 08:40:31;;;;;;;2.38;0.88;;;;;;;25.28;54.96;100713.31;4901941;29;20058;-91
2022/09/10 08:43:00;;;;;;;1.83;1.05;;;;;;;25.29;54.64;100717.72;4918373;29;20047;-90
2022/09/10 08:45:31;;;;;;;0.95;0.60;;;;;;;25.38;55.01;100709.84;4901793;29;20502;-75
2022/09/10 08:48:09;;;;;;;2.35;1.02;;;;;;;25.49;53.95;100722.00;4919233;29;20047;-76
2022/09/10 08:50:45;;;;;;;2.88;0.88;;;;;;;25.41;54.42;100716.69;4911363;29;20036;-76
2022/09/10 08:53:43;;;;;;;0.63;0.63;;;;;;;25.53;54.34;100715.63;4928429;29;20051;-76
2022/09/10 08:56:17;;;;;;;1.85;0.73;;;;;;;25.69;53.98;100721.88;4912384;29;20052;-76
2022/09/10 08:58:55;;;;;;;2.35;1.00;;;;;;;25.76;53.71;100719.16;4932461;29;20055;-76
2022/09/10 09:01:44;;;;;;;2.80;0.93;;;;;;;25.93;52.83;100730.16;4918272;29;20058;-76
2022/09/10 09:04:33;;;;;;;0.50;0.50;;;;;;;25.93;50.66;100718.94;4919403;29;20063;-76
2022/09/10 09:07:10;;;;;;;0.80;0.50;;;;;;;25.80;51.69;100722.00;4914186;29;20051;-76
2022/09/10 09:09:39;;;;;;;0.85;0.77;;;;;;;25.67;49.46;100713.06;4906502;29;20109;-76
2022/09/10 09:12:28;;;;;;;0.75;0.75;;;;;;;25.67;52.49;100701.84;4905918;29;20074;-75
2022/09/10 09:15:24;;;;;;;1.02;1.00;;;;;;;25.82;51.60;100713.22;4903011;29;20039;-76
2022/09/10 09:18:11;;;;;;;1.92;0.65;;;;;;;26.03;51.97;100707.03;4931693;29;20071;-75
2022/09/10 09:20:51;;;;;;;0.60;0.55;;;;;;;25.97;49.33;100719.81;4933814;29;20510;-75
2022/09/10 09:23:31;;;;;;;2.22;0.90;;;;;;;26.02;51.87;100711.88;4937872;29;20054;-78
2022/09/10 09:26:14;;;;;;;0.88;0.70;;;;;;;26.24;50.88;100720.50;4927106;29;20048;-79
2022/09/10 09:29:11;;;;;;;0.60;0.60;;;;;;;26.36;51.00;100715.81;4928421;29;20570;-78
2022/09/10 09:31:45;;;;;;;1.00;0.70;;;;;;;26.37;50.10;100709.00;4912127;29;20052;-78
2022/09/10 09:34:27;;;;;;;0.95;0.85;;;;;;;26.34;49.79;100707.00;4915101;29;20054;-78
2022/09/10 09:37:04;;;;;;;1.10;0.70;;;;;;;26.40;50.36;100713.88;4928781;29;20145;-79
2022/09/10 09:39:47;;;;;;;1.85;0.70;;;;;;;26.41;49.13;100695.84;4930440;29;20044;-79
2022/09/10 09:42:37;;;;;;;0.77;0.63;;;;;;;26.54;47.94;100702.75;4917961;29;20039;-78
2022/09/10 09:45:19;;;;;;;0.68;0.68;;;;;;;26.47;46.84;100690.66;4911318;29;20054;-80
2022/09/10 09:47:53;;;;;;;1.40;0.85;;;;;;;26.53;47.90;100695.53;4914586;29;20067;-79
2022/09/10 09:50:22;;;;;;;0.40;0.40;;;;;;;26.42;46.17;100694.63;4896254;29;20049;-80
2022/09/10 09:52:58;;;;;;;0.93;0.80;;;;;;;26.54;46.58;100697.16;4913812;29;20044;-78
2022/09/10 09:55:39;;;;;;;1.60;0.57;;;;;;;26.66;48.33;100693.25;4910172;29;20487;-77
2022/09/10 09:58:21;;;;;;;1.52;0.88;;;;;;;26.65;46.53;100685.22;4903745;29;20122;-82
2022/09/10 10:01:13;;;;;;;1.23;0.70;;;;;;;26.76;47.71;100686.09;4910105;29;20052;-78
2022/09/10 10:04:01;;;;;;;0.60;0.60;;;;;;;26.83;45.25;100683.34;4903634;29;20048;-77
2022/09/10 10:06:33;;;;;;;0.90;0.75;;;;;;;26.85;44.16;100677.34;4897947;29;20708;-79
2022/09/10 10:09:19;;;;;;;0.80;0.60;;;;;;;26.86;45.41;100675.31;4899405;29;20041;-79
2022/09/10 10:11:56;;;;;;;0.60;0.60;;;;;;;26.88;45.21;100676.53;4905013;29;20408;-79
2022/09/10 10:14:35;;;;;;;0.60;0.60;;;;;;;26.93;45.52;100675.44;4912042;29;20052;-79
2022/09/10 10:17:29;;;;;;;0.60;0.60;;;;;;;27.03;46.23;100683.09;4913751;29;20507;-79
2022/09/10 10:20:07;;;;;;;0.40;0.40;;;;;;;27.10;45.01;100671.09;4908603;29;20618;-80
2022/09/10 10:22:38;;;;;;;0.98;0.57;;;;;;;27.14;44.29;100674.75;4913919;29;20044;-81
2022/09/10 10:25:47;;;;;;;1.20;0.60;;;;;;;27.29;42.77;100675.63;4913202;29;20074;-80
2022/09/10 10:28:24;;;;;;;2.35;0.70;;;;;;;27.34;45.55;100672.44;4915647;29;20048;-79
2022/09/10 10:30:59;;;;;;;0.50;0.50;;;;;;;27.07;45.75;100663.44;4925622;29;20511;-75
2022/09/10 10:33:32;;;;;;;0.70;0.70;;;;;;;27.40;44.71;100670.06;4897631;29;20542;-76
2022/09/10 10:36:12;;;;;;;1.63;0.50;;;;;;;27.37;44.19;100660.41;4877855;29;20056;-76
2022/09/10 10:38:51;;;;;;;2.38;0.73;;;;;;;27.50;44.19;100648.81;4911303;29;20080;-76
2022/09/10 10:41:41;;;;;;;0.80;0.60;;;;;;;27.49;42.73;100655.66;4906169;29;20055;-75
2022/09/10 10:44:28;;;;;;;0.60;0.60;;;;;;;27.72;42.72;100651.75;4921982;29;20071;-75
2022/09/10 10:47:23;;;;;;;1.08;0.60;;;;;;;27.69;44.32;100641.28;4913584;29;20051;-74
2022/09/10 10:50:04;;;;;;;0.60;0.60;;;;;;;27.77;44.58;100631.69;4911155;29;20059;-75
2022/09/10 10:52:58;;;;;;;1.65;0.63;;;;;;;27.56;44.34;100630.38;4924018;29;20047;-75
2022/09/10 10:55:36;;;;;;;2.17;0.43;;;;;;;27.89;44.59;100628.50;4933664;29;20242;-76
2022/09/10 10:58:19;;;;;;;0.82;0.65;;;;;;;27.99;43.41;100617.63;4934183;29;20056;-75
2022/09/10 11:01:03;;;;;;;1.45;0.50;;;;;;;28.00;44.23;100608.03;4933414;29;20056;-75
2022/09/10 11:03:59;;;;;;;0.93;0.57;;;;;;;27.88;43.53;100626.06;4930821;29;20482;-75
2022/09/10 11:06:42;;;;;;;1.33;0.65;;;;;;;27.77;44.89;100614.81;4928822;29;20066;-76
2022/09/10 11:09:30;;;;;;;0.73;0.57;;;;;;;27.99;42.88;100626.06;4933544;29;20054;-75
2022/09/10 11:12:14;;;;;;;0.70;0.60;;;;;;;27.98;41.14;100627.28;4928802;29;20086;-75
2022/09/10 11:14:52;;;;;;;0.55;0.55;;;;;;;28.27;42.73;100627.34;4902843;29;20051;-76
2022/09/10 11:17:37;;;;;;;0.65;0.60;;;;;;;28.13;40.79;100628.09;4933308;29;20043;-74
2022/09/10 11:20:17;;;;;;;0.50;0.50;;;;;;;28.32;42.66;100623.31;4932816;29;20039;-75
2022/09/10 11:23:04;;;;;;;1.63;0.80;;;;;;;28.30;41.70;100616.09;4934793;29;20066;-75
2022/09/10 11:25:53;;;;;;;;;;;;;;;28.40;41.53;100616.50;4936664;29;20052;-76
2022/09/10 11:28:37;;;;;;;0.60;0.60;;;;;;;28.47;42.51;100618.47;4937170;29;20283;-75
2022/09/10 11:31:31;;;;;;;0.50;0.50;;;;;;;28.52;42.71;100616.06;4933305;29;20511;-76
2022/09/10 11:34:09;;;;;;;2.05;0.45;;;;;;;28.14;40.29;100590.31;4936037;29;20402;-77
2022/09/10 11:36:51;;;;;;;0.40;0.40;;;;;;;28.39;40.88;100612.06;4935680;29;20047;-76
2022/09/10 11:39:34;;;;;;;0.52;0.52;;;;;;;28.53;41.52;100591.53;4936302;29;20051;-75
2022/09/10 11:42:15;;;;;;;0.55;0.55;;;;;;;28.67;40.93;100588.72;4916053;29;20051;-77
2022/09/10 11:45:13;;;;;;;0.70;0.57;;;;;;;28.81;40.81;100587.06;4931595;29;20055;-76
2022/09/10 11:47:48;;;;;;;0.50;0.50;;;;;;;28.86;39.46;100595.13;4914944;29;20052;-76
2022/09/10 11:50:31;;;;;;;0.43;0.40;;;;;;;28.66;39.53;100589.09;4916620;29;20510;-75
2022/09/10 11:53:09;;;;;;;1.63;0.40;;;;;;;28.67;39.97;100585.91;4918588;29;20403;-76
2022/09/10 11:55:50;;;;;;;0.47;0.40;;;;;;;28.92;40.07;100587.03;4916192;29;20052;-76
2022/09/10 11:58:32;;;;;;;0.90;0.40;;;;;;;28.70;38.77;100576.63;4914758;29;20056;-75
2022/09/10 12:01:26;;;;;;;2.00;0.50;;;;;;;28.46;38.82;100583.09;4917193;29;20403;-75